sensor_id;sensor_type;location;lat;lon;timestamp;temperature;humidity
3418;DHT22;68007;51.312;12.372;2023-03-23T00:01:02;13.90;80.80
3418;DHT22;68007;51.312;12.372;2023-03-23T00:03:30;13.80;81.10
3418;DHT22;68007;51.312;12.372;2023-03-23T00:05:58;13.80;81.00
3418;DHT22;68007;51.312;12.372;2023-03-23T00:08:31;13.80;81.20
3418;DHT22;68007;51.312;12.372;2023-03-23T00:10:59;13.80;80.70
3418;DHT22;68007;51.312;12.372;2023-03-23T00:13:28;13.70;80.50
3418;DHT22;68007;51.312;12.372;2023-03-23T00:15:56;13.70;80.70
3418;DHT22;68007;51.312;12.372;2023-03-23T00:18:25;13.70;80.60
3418;DHT22;68007;51.312;12.372;2023-03-23T00:20:54;13.80;80.60
3418;DHT22;68007;51.312;12.372;2023-03-23T00:23:24;13.70;80.20
3418;DHT22;68007;51.312;12.372;2023-03-23T00:25:54;13.70;80.30
3418;DHT22;68007;51.312;12.372;2023-03-23T00:28:24;13.80;80.50
3418;DHT22;68007;51.312;12.372;2023-03-23T00:30:56;13.80;80.10
3418;DHT22;68007;51.312;12.372;2023-03-23T00:33:27;13.80;79.90
3418;DHT22;68007;51.312;12.372;2023-03-23T00:35:56;13.80;79.90
3418;DHT22;68007;51.312;12.372;2023-03-23T00:38:24;13.80;79.60
3418;DHT22;68007;51.312;12.372;2023-03-23T00:40:52;13.90;79.10
3418;DHT22;68007;51.312;12.372;2023-03-23T00:43:20;13.80;79.10
3418;DHT22;68007;51.312;12.372;2023-03-23T00:45:50;13.80;78.80
3418;DHT22;68007;51.312;12.372;2023-03-23T00:48:19;13.80;78.60
3418;DHT22;68007;51.312;12.372;2023-03-23T00:50:49;13.90;78.70
3418;DHT22;68007;51.312;12.372;2023-03-23T00:53:17;13.90;78.90
3418;DHT22;68007;51.312;12.372;2023-03-23T00:55:46;14.00;78.30
3418;DHT22;68007;51.312;12.372;2023-03-23T00:58:15;14.00;78.40
3418;DHT22;68007;51.312;12.372;2023-03-23T01:00:43;14.00;78.70
3418;DHT22;68007;51.312;12.372;2023-03-23T01:03:10;13.90;78.50
3418;DHT22;68007;51.312;12.372;2023-03-23T01:05:45;13.90;79.10
3418;DHT22;68007;51.312;12.372;2023-03-23T01:08:15;13.90;78.70
3418;DHT22;68007;51.312;12.372;2023-03-23T01:10:42;13.90;78.90
3418;DHT22;68007;51.312;12.372;2023-03-23T01:13:10;13.80;78.60
3418;DHT22;68007;51.312;12.372;2023-03-23T01:15:38;13.90;78.40
3418;DHT22;68007;51.312;12.372;2023-03-23T01:18:06;13.90;78.20
3418;DHT22;68007;51.312;12.372;2023-03-23T01:20:35;13.90;78.00
3418;DHT22;68007;51.312;12.372;2023-03-23T01:23:04;14.00;77.00
3418;DHT22;68007;51.312;12.372;2023-03-23T01:25:35;14.00;77.10
3418;DHT22;68007;51.312;12.372;2023-03-23T01:28:03;14.10;77.00
3418;DHT22;68007;51.312;12.372;2023-03-23T01:30:31;14.20;76.70
3418;DHT22;68007;51.312;12.372;2023-03-23T01:32:59;14.30;76.20
3418;DHT22;68007;51.312;12.372;2023-03-23T01:35:26;14.30;76.70
3418;DHT22;68007;51.312;12.372;2023-03-23T01:37:54;14.20;76.20
3418;DHT22;68007;51.312;12.372;2023-03-23T01:40:22;14.20;76.30
3418;DHT22;68007;51.312;12.372;2023-03-23T01:42:51;14.20;76.00
3418;DHT22;68007;51.312;12.372;2023-03-23T01:45:29;14.00;76.20
3418;DHT22;68007;51.312;12.372;2023-03-23T01:48:03;14.00;76.50
3418;DHT22;68007;51.312;12.372;2023-03-23T01:50:36;14.00;76.80
3418;DHT22;68007;51.312;12.372;2023-03-23T01:53:06;13.90;76.50
3418;DHT22;68007;51.312;12.372;2023-03-23T01:55:37;13.80;76.70
3418;DHT22;68007;51.312;12.372;2023-03-23T01:58:09;13.80;76.90
3418;DHT22;68007;51.312;12.372;2023-03-23T02:00:38;13.90;76.70
3418;DHT22;68007;51.312;12.372;2023-03-23T02:03:09;13.90;76.50
3418;DHT22;68007;51.312;12.372;2023-03-23T02:05:41;14.00;77.20
3418;DHT22;68007;51.312;12.372;2023-03-23T02:08:10;14.00;76.30
3418;DHT22;68007;51.312;12.372;2023-03-23T02:10:40;13.90;76.70
3418;DHT22;68007;51.312;12.372;2023-03-23T02:13:10;13.70;77.40
3418;DHT22;68007;51.312;12.372;2023-03-23T02:15:45;13.60;77.90
3418;DHT22;68007;51.312;12.372;2023-03-23T02:18:30;13.70;77.90
3418;DHT22;68007;51.312;12.372;2023-03-23T02:21:20;13.70;77.90
3418;DHT22;68007;51.312;12.372;2023-03-23T02:24:12;13.70;77.70
3418;DHT22;68007;51.312;12.372;2023-03-23T02:26:49;13.70;77.70
3418;DHT22;68007;51.312;12.372;2023-03-23T02:29:44;13.60;77.80
3418;DHT22;68007;51.312;12.372;2023-03-23T02:32:24;13.70;77.60
3418;DHT22;68007;51.312;12.372;2023-03-23T02:34:59;13.70;77.90
3418;DHT22;68007;51.312;12.372;2023-03-23T02:37:31;13.70;77.80
3418;DHT22;68007;51.312;12.372;2023-03-23T02:40:04;13.60;78.10
3418;DHT22;68007;51.312;12.372;2023-03-23T02:42:36;13.60;78.30
3418;DHT22;68007;51.312;12.372;2023-03-23T02:45:08;13.60;78.50
3418;DHT22;68007;51.312;12.372;2023-03-23T02:47:38;13.60;78.50
3418;DHT22;68007;51.312;12.372;2023-03-23T02:50:11;13.60;78.30
3418;DHT22;68007;51.312;12.372;2023-03-23T02:52:41;13.50;78.70
3418;DHT22;68007;51.312;12.372;2023-03-23T02:55:11;13.60;79.00
3418;DHT22;68007;51.312;12.372;2023-03-23T02:57:40;13.60;79.10
3418;DHT22;68007;51.312;12.372;2023-03-23T03:00:13;13.60;78.90
3418;DHT22;68007;51.312;12.372;2023-03-23T03:02:43;13.60;78.90
3418;DHT22;68007;51.312;12.372;2023-03-23T03:05:18;13.70;79.20
3418;DHT22;68007;51.312;12.372;2023-03-23T03:07:53;13.70;79.00
3418;DHT22;68007;51.312;12.372;2023-03-23T03:10:26;13.50;79.30
3418;DHT22;68007;51.312;12.372;2023-03-23T03:12:59;13.50;79.20
3418;DHT22;68007;51.312;12.372;2023-03-23T03:15:33;13.50;79.60
3418;DHT22;68007;51.312;12.372;2023-03-23T03:18:10;13.50;79.70
3418;DHT22;68007;51.312;12.372;2023-03-23T03:20:45;13.60;80.00
3418;DHT22;68007;51.312;12.372;2023-03-23T03:23:14;13.50;79.60
3418;DHT22;68007;51.312;12.372;2023-03-23T03:25:44;13.40;80.70
3418;DHT22;68007;51.312;12.372;2023-03-23T03:28:16;13.40;80.20
3418;DHT22;68007;51.312;12.372;2023-03-23T03:30:51;13.40;80.30
3418;DHT22;68007;51.312;12.372;2023-03-23T03:33:20;13.50;80.20
3418;DHT22;68007;51.312;12.372;2023-03-23T03:35:54;13.40;80.40
3418;DHT22;68007;51.312;12.372;2023-03-23T03:38:22;13.40;80.30
3418;DHT22;68007;51.312;12.372;2023-03-23T03:40:50;13.40;80.70
3418;DHT22;68007;51.312;12.372;2023-03-23T03:43:18;13.40;80.40
3418;DHT22;68007;51.312;12.372;2023-03-23T03:45:46;13.50;80.40
3418;DHT22;68007;51.312;12.372;2023-03-23T03:48:13;13.40;80.70
3418;DHT22;68007;51.312;12.372;2023-03-23T03:50:41;13.40;80.60
3418;DHT22;68007;51.312;12.372;2023-03-23T03:53:09;13.40;80.90
3418;DHT22;68007;51.312;12.372;2023-03-23T03:55:37;13.40;80.80
3418;DHT22;68007;51.312;12.372;2023-03-23T03:58:04;13.40;80.70
3418;DHT22;68007;51.312;12.372;2023-03-23T04:00:33;13.40;80.70
3418;DHT22;68007;51.312;12.372;2023-03-23T04:03:01;13.40;80.60
3418;DHT22;68007;51.312;12.372;2023-03-23T04:05:29;13.40;80.40
3418;DHT22;68007;51.312;12.372;2023-03-23T04:07:56;13.40;80.30
3418;DHT22;68007;51.312;12.372;2023-03-23T04:10:30;13.50;80.20
3418;DHT22;68007;51.312;12.372;2023-03-23T04:12:58;13.40;80.40
3418;DHT22;68007;51.312;12.372;2023-03-23T04:15:26;13.40;80.70
3418;DHT22;68007;51.312;12.372;2023-03-23T04:17:53;13.40;80.60
3418;DHT22;68007;51.312;12.372;2023-03-23T04:20:23;13.40;80.70
3418;DHT22;68007;51.312;12.372;2023-03-23T04:22:51;13.50;80.50
3418;DHT22;68007;51.312;12.372;2023-03-23T04:25:21;13.50;80.40
3418;DHT22;68007;51.312;12.372;2023-03-23T04:27:51;13.50;80.30
3418;DHT22;68007;51.312;12.372;2023-03-23T04:30:20;13.60;80.10
3418;DHT22;68007;51.312;12.372;2023-03-23T04:32:49;13.60;80.00
3418;DHT22;68007;51.312;12.372;2023-03-23T04:35:19;13.50;80.10
3418;DHT22;68007;51.312;12.372;2023-03-23T04:37:48;13.60;80.00
3418;DHT22;68007;51.312;12.372;2023-03-23T04:40:16;13.70;79.90
3418;DHT22;68007;51.312;12.372;2023-03-23T04:42:45;13.80;79.70
3418;DHT22;68007;51.312;12.372;2023-03-23T04:45:16;13.60;80.00
3418;DHT22;68007;51.312;12.372;2023-03-23T04:47:48;13.60;80.20
3418;DHT22;68007;51.312;12.372;2023-03-23T04:50:21;13.60;80.30
3418;DHT22;68007;51.312;12.372;2023-03-23T04:52:50;13.70;80.40
3418;DHT22;68007;51.312;12.372;2023-03-23T04:55:18;13.80;80.20
3418;DHT22;68007;51.312;12.372;2023-03-23T04:57:47;13.80;79.80
3418;DHT22;68007;51.312;12.372;2023-03-23T05:00:17;13.70;80.30
3418;DHT22;68007;51.312;12.372;2023-03-23T05:02:47;13.80;80.10
3418;DHT22;68007;51.312;12.372;2023-03-23T05:05:19;13.80;80.00
3418;DHT22;68007;51.312;12.372;2023-03-23T05:07:47;13.80;80.50
3418;DHT22;68007;51.312;12.372;2023-03-23T05:10:15;13.90;80.60
3418;DHT22;68007;51.312;12.372;2023-03-23T05:12:43;13.90;80.30
3418;DHT22;68007;51.312;12.372;2023-03-23T05:15:13;13.80;80.90
3418;DHT22;68007;51.312;12.372;2023-03-23T05:17:42;13.70;81.20
3418;DHT22;68007;51.312;12.372;2023-03-23T05:20:12;13.70;81.40
3418;DHT22;68007;51.312;12.372;2023-03-23T05:22:41;13.70;81.60
3418;DHT22;68007;51.312;12.372;2023-03-23T05:25:10;13.70;81.70
3418;DHT22;68007;51.312;12.372;2023-03-23T05:27:38;13.70;81.90
3418;DHT22;68007;51.312;12.372;2023-03-23T05:30:09;13.90;81.60
3418;DHT22;68007;51.312;12.372;2023-03-23T05:32:37;13.90;81.40
3418;DHT22;68007;51.312;12.372;2023-03-23T05:35:07;14.00;81.40
3418;DHT22;68007;51.312;12.372;2023-03-23T05:37:35;14.00;81.30
3418;DHT22;68007;51.312;12.372;2023-03-23T05:40:03;14.00;82.30
3418;DHT22;68007;51.312;12.372;2023-03-23T05:42:33;13.90;83.50
3418;DHT22;68007;51.312;12.372;2023-03-23T05:45:00;14.00;83.40
3418;DHT22;68007;51.312;12.372;2023-03-23T05:47:28;14.00;83.60
3418;DHT22;68007;51.312;12.372;2023-03-23T05:49:56;14.00;83.90
3418;DHT22;68007;51.312;12.372;2023-03-23T05:52:25;14.00;83.40
3418;DHT22;68007;51.312;12.372;2023-03-23T05:54:53;14.00;84.20
3418;DHT22;68007;51.312;12.372;2023-03-23T05:57:21;13.80;84.90
3418;DHT22;68007;51.312;12.372;2023-03-23T05:59:48;13.90;84.10
3418;DHT22;68007;51.312;12.372;2023-03-23T06:02:16;13.90;83.70
3418;DHT22;68007;51.312;12.372;2023-03-23T06:04:44;13.90;83.90
3418;DHT22;68007;51.312;12.372;2023-03-23T06:07:11;13.80;84.10
3418;DHT22;68007;51.312;12.372;2023-03-23T06:09:42;13.90;83.90
3418;DHT22;68007;51.312;12.372;2023-03-23T06:12:09;13.90;83.90
3418;DHT22;68007;51.312;12.372;2023-03-23T06:14:37;13.90;84.70
3418;DHT22;68007;51.312;12.372;2023-03-23T06:17:05;13.80;84.80
3418;DHT22;68007;51.312;12.372;2023-03-23T06:19:34;13.80;86.00
3418;DHT22;68007;51.312;12.372;2023-03-23T06:22:02;13.80;86.70
3418;DHT22;68007;51.312;12.372;2023-03-23T06:24:31;13.80;87.00
3418;DHT22;68007;51.312;12.372;2023-03-23T06:27:01;13.80;87.30
3418;DHT22;68007;51.312;12.372;2023-03-23T06:29:29;13.70;87.70
3418;DHT22;68007;51.312;12.372;2023-03-23T06:31:59;13.80;86.60
3418;DHT22;68007;51.312;12.372;2023-03-23T06:34:28;13.80;87.00
3418;DHT22;68007;51.312;12.372;2023-03-23T06:36:57;13.90;86.20
3418;DHT22;68007;51.312;12.372;2023-03-23T06:39:24;14.00;86.90
3418;DHT22;68007;51.312;12.372;2023-03-23T06:41:52;13.90;87.80
3418;DHT22;68007;51.312;12.372;2023-03-23T06:44:21;13.90;87.20
3418;DHT22;68007;51.312;12.372;2023-03-23T06:46:48;13.80;89.20
3418;DHT22;68007;51.312;12.372;2023-03-23T06:49:15;13.80;89.10
3418;DHT22;68007;51.312;12.372;2023-03-23T06:51:43;13.60;90.00
3418;DHT22;68007;51.312;12.372;2023-03-23T06:54:11;13.40;90.80
3418;DHT22;68007;51.312;12.372;2023-03-23T06:56:38;13.30;90.90
3418;DHT22;68007;51.312;12.372;2023-03-23T06:59:06;13.40;90.90
3418;DHT22;68007;51.312;12.372;2023-03-23T07:01:36;13.40;91.20
3418;DHT22;68007;51.312;12.372;2023-03-23T07:04:04;13.50;91.30
3418;DHT22;68007;51.312;12.372;2023-03-23T07:06:31;13.50;91.40
3418;DHT22;68007;51.312;12.372;2023-03-23T07:08:59;13.40;91.40
3418;DHT22;68007;51.312;12.372;2023-03-23T07:11:27;13.40;91.90
3418;DHT22;68007;51.312;12.372;2023-03-23T07:13:54;13.30;92.40
3418;DHT22;68007;51.312;12.372;2023-03-23T07:16:22;13.20;92.50
3418;DHT22;68007;51.312;12.372;2023-03-23T07:18:51;13.30;92.40
3418;DHT22;68007;51.312;12.372;2023-03-23T07:21:18;13.30;92.70
3418;DHT22;68007;51.312;12.372;2023-03-23T07:23:46;13.30;92.80
3418;DHT22;68007;51.312;12.372;2023-03-23T07:26:13;13.30;93.10
3418;DHT22;68007;51.312;12.372;2023-03-23T07:28:41;13.30;93.00
3418;DHT22;68007;51.312;12.372;2023-03-23T07:31:09;13.30;93.10
3418;DHT22;68007;51.312;12.372;2023-03-23T07:33:36;13.30;93.40
3418;DHT22;68007;51.312;12.372;2023-03-23T07:36:07;13.40;93.30
3418;DHT22;68007;51.312;12.372;2023-03-23T07:38:35;13.30;93.60
3418;DHT22;68007;51.312;12.372;2023-03-23T07:41:03;13.20;94.40
3418;DHT22;68007;51.312;12.372;2023-03-23T07:43:30;13.10;94.80
3418;DHT22;68007;51.312;12.372;2023-03-23T07:45:58;13.10;94.80
3418;DHT22;68007;51.312;12.372;2023-03-23T07:48:26;13.10;94.80
3418;DHT22;68007;51.312;12.372;2023-03-23T07:50:54;13.20;94.90
3418;DHT22;68007;51.312;12.372;2023-03-23T07:53:23;13.20;94.90
3418;DHT22;68007;51.312;12.372;2023-03-23T07:55:50;13.30;94.60
3418;DHT22;68007;51.312;12.372;2023-03-23T07:58:18;13.30;94.30
3418;DHT22;68007;51.312;12.372;2023-03-23T08:00:46;13.30;94.40
3418;DHT22;68007;51.312;12.372;2023-03-23T08:03:15;13.30;94.70
3418;DHT22;68007;51.312;12.372;2023-03-23T08:05:43;13.30;94.90
3418;DHT22;68007;51.312;12.372;2023-03-23T08:08:10;13.30;94.60
3418;DHT22;68007;51.312;12.372;2023-03-23T08:10:40;13.40;94.70
3418;DHT22;68007;51.312;12.372;2023-03-23T08:13:07;13.50;94.30
3418;DHT22;68007;51.312;12.372;2023-03-23T08:15:35;13.50;94.50
3418;DHT22;68007;51.312;12.372;2023-03-23T08:18:04;13.60;94.70
3418;DHT22;68007;51.312;12.372;2023-03-23T08:20:32;13.70;94.50
3418;DHT22;68007;51.312;12.372;2023-03-23T08:22:59;13.60;94.90
3418;DHT22;68007;51.312;12.372;2023-03-23T08:25:29;13.70;94.10
3418;DHT22;68007;51.312;12.372;2023-03-23T08:27:59;13.70;94.50
3418;DHT22;68007;51.312;12.372;2023-03-23T08:30:28;13.70;95.00
3418;DHT22;68007;51.312;12.372;2023-03-23T08:32:57;13.80;94.70
3418;DHT22;68007;51.312;12.372;2023-03-23T08:35:24;13.80;94.90
3418;DHT22;68007;51.312;12.372;2023-03-23T08:37:52;13.70;95.60
3418;DHT22;68007;51.312;12.372;2023-03-23T08:40:22;13.80;95.30
3418;DHT22;68007;51.312;12.372;2023-03-23T08:42:51;13.70;95.30
3418;DHT22;68007;51.312;12.372;2023-03-23T08:45:21;13.70;95.80
3418;DHT22;68007;51.312;12.372;2023-03-23T08:47:50;13.60;95.50
3418;DHT22;68007;51.312;12.372;2023-03-23T08:50:20;13.70;95.70
3418;DHT22;68007;51.312;12.372;2023-03-23T08:52:49;13.70;95.60
3418;DHT22;68007;51.312;12.372;2023-03-23T08:55:17;13.60;96.10
3418;DHT22;68007;51.312;12.372;2023-03-23T08:57:48;13.60;95.80
3418;DHT22;68007;51.312;12.372;2023-03-23T09:00:18;13.60;95.70
3418;DHT22;68007;51.312;12.372;2023-03-23T09:02:50;13.60;95.70
3418;DHT22;68007;51.312;12.372;2023-03-23T09:05:19;13.60;95.50
3418;DHT22;68007;51.312;12.372;2023-03-23T09:07:49;13.60;95.60
3418;DHT22;68007;51.312;12.372;2023-03-23T09:10:17;13.70;95.10
3418;DHT22;68007;51.312;12.372;2023-03-23T09:12:46;13.80;95.30
3418;DHT22;68007;51.312;12.372;2023-03-23T09:15:15;13.80;95.00
3418;DHT22;68007;51.312;12.372;2023-03-23T09:17:45;13.90;95.00
3418;DHT22;68007;51.312;12.372;2023-03-23T09:20:15;14.00;94.60
3418;DHT22;68007;51.312;12.372;2023-03-23T09:22:44;14.10;94.30
3418;DHT22;68007;51.312;12.372;2023-03-23T09:25:15;14.00;94.40
3418;DHT22;68007;51.312;12.372;2023-03-23T09:27:42;14.10;94.10
3418;DHT22;68007;51.312;12.372;2023-03-23T09:30:13;14.10;93.80
3418;DHT22;68007;51.312;12.372;2023-03-23T09:32:41;14.10;93.80
3418;DHT22;68007;51.312;12.372;2023-03-23T09:35:10;14.10;94.00
3418;DHT22;68007;51.312;12.372;2023-03-23T09:37:40;14.10;93.80
3418;DHT22;68007;51.312;12.372;2023-03-23T09:40:12;14.10;94.00
3418;DHT22;68007;51.312;12.372;2023-03-23T09:42:52;14.20;93.80
3418;DHT22;68007;51.312;12.372;2023-03-23T09:45:25;14.20;93.70
3418;DHT22;68007;51.312;12.372;2023-03-23T09:50:46;14.40;93.60
3418;DHT22;68007;51.312;12.372;2023-03-23T09:53:21;14.40;93.20
3418;DHT22;68007;51.312;12.372;2023-03-23T09:55:49;14.50;93.00
3418;DHT22;68007;51.312;12.372;2023-03-23T09:58:20;14.50;92.50
3418;DHT22;68007;51.312;12.372;2023-03-23T10:01:06;14.50;92.30
3418;DHT22;68007;51.312;12.372;2023-03-23T10:03:39;14.50;92.40
3418;DHT22;68007;51.312;12.372;2023-03-23T10:06:10;14.60;92.20
3418;DHT22;68007;51.312;12.372;2023-03-23T10:08:43;14.70;92.30
3418;DHT22;68007;51.312;12.372;2023-03-23T10:11:17;14.70;92.00
3418;DHT22;68007;51.312;12.372;2023-03-23T10:16:42;14.80;91.80
3418;DHT22;68007;51.312;12.372;2023-03-23T10:19:20;14.80;91.50
3418;DHT22;68007;51.312;12.372;2023-03-23T10:21:52;14.80;91.80
3418;DHT22;68007;51.312;12.372;2023-03-23T10:24:28;14.80;91.60
3418;DHT22;68007;51.312;12.372;2023-03-23T10:27:03;14.80;91.20
3418;DHT22;68007;51.312;12.372;2023-03-23T10:29:35;14.80;91.00
3418;DHT22;68007;51.312;12.372;2023-03-23T10:32:09;14.90;91.00
3418;DHT22;68007;51.312;12.372;2023-03-23T10:34:42;14.90;90.70
3418;DHT22;68007;51.312;12.372;2023-03-23T10:37:13;14.90;90.50
3418;DHT22;68007;51.312;12.372;2023-03-23T10:39:48;15.00;90.30
3418;DHT22;68007;51.312;12.372;2023-03-23T10:42:28;15.00;90.20
3418;DHT22;68007;51.312;12.372;2023-03-23T10:44:59;15.10;90.10
3418;DHT22;68007;51.312;12.372;2023-03-23T10:47:27;15.10;90.00
3418;DHT22;68007;51.312;12.372;2023-03-23T10:49:58;15.20;90.10
3418;DHT22;68007;51.312;12.372;2023-03-23T10:52:30;15.20;90.10
3418;DHT22;68007;51.312;12.372;2023-03-23T10:55:04;15.10;89.50
3418;DHT22;68007;51.312;12.372;2023-03-23T10:57:33;15.10;89.50
3418;DHT22;68007;51.312;12.372;2023-03-23T11:00:06;15.10;89.10
3418;DHT22;68007;51.312;12.372;2023-03-23T11:02:40;15.20;89.20
3418;DHT22;68007;51.312;12.372;2023-03-23T11:05:17;15.10;88.30
3418;DHT22;68007;51.312;12.372;2023-03-23T11:07:50;15.10;87.30
3418;DHT22;68007;51.312;12.372;2023-03-23T11:10:23;15.10;87.90
3418;DHT22;68007;51.312;12.372;2023-03-23T11:12:51;15.10;87.60
3418;DHT22;68007;51.312;12.372;2023-03-23T11:15:29;15.20;87.90
3418;DHT22;68007;51.312;12.372;2023-03-23T11:17:58;15.20;86.90
3418;DHT22;68007;51.312;12.372;2023-03-23T11:20:28;15.20;87.60
3418;DHT22;68007;51.312;12.372;2023-03-23T11:22:57;15.20;86.90
3418;DHT22;68007;51.312;12.372;2023-03-23T11:25:26;15.30;87.40
3418;DHT22;68007;51.312;12.372;2023-03-23T11:27:54;15.20;87.40
3418;DHT22;68007;51.312;12.372;2023-03-23T11:30:26;15.30;87.00
3418;DHT22;68007;51.312;12.372;2023-03-23T11:32:55;15.20;85.70
3418;DHT22;68007;51.312;12.372;2023-03-23T11:35:27;15.20;85.10
3418;DHT22;68007;51.312;12.372;2023-03-23T11:37:57;15.10;84.70
3418;DHT22;68007;51.312;12.372;2023-03-23T11:40:27;15.20;84.40
3418;DHT22;68007;51.312;12.372;2023-03-23T11:42:59;15.20;84.10
3418;DHT22;68007;51.312;12.372;2023-03-23T11:45:33;15.20;84.20
3418;DHT22;68007;51.312;12.372;2023-03-23T11:48:12;15.10;84.50
3418;DHT22;68007;51.312;12.372;2023-03-23T11:50:49;15.10;84.90
3418;DHT22;68007;51.312;12.372;2023-03-23T11:53:28;15.00;85.50
3418;DHT22;68007;51.312;12.372;2023-03-23T11:56:09;15.10;85.90
3418;DHT22;68007;51.312;12.372;2023-03-23T11:58:38;15.10;85.90
3418;DHT22;68007;51.312;12.372;2023-03-23T12:01:12;15.20;86.00
3418;DHT22;68007;51.312;12.372;2023-03-23T12:04:09;15.20;86.20
3418;DHT22;68007;51.312;12.372;2023-03-23T12:06:45;15.20;86.10
3418;DHT22;68007;51.312;12.372;2023-03-23T12:09:28;15.30;86.40
3418;DHT22;68007;51.312;12.372;2023-03-23T12:12:12;15.30;86.60
3418;DHT22;68007;51.312;12.372;2023-03-23T12:14:47;15.30;87.30
3418;DHT22;68007;51.312;12.372;2023-03-23T12:17:22;15.30;86.60
3418;DHT22;68007;51.312;12.372;2023-03-23T12:20:01;15.40;86.70
3418;DHT22;68007;51.312;12.372;2023-03-23T12:22:45;15.40;86.10
3418;DHT22;68007;51.312;12.372;2023-03-23T12:25:30;15.40;86.20
3418;DHT22;68007;51.312;12.372;2023-03-23T12:28:05;15.50;86.30
3418;DHT22;68007;51.312;12.372;2023-03-23T12:30:38;15.50;85.60
3418;DHT22;68007;51.312;12.372;2023-03-23T12:33:17;15.50;85.40
3418;DHT22;68007;51.312;12.372;2023-03-23T12:35:56;15.40;85.70
3418;DHT22;68007;51.312;12.372;2023-03-23T12:38:37;15.50;84.60
3418;DHT22;68007;51.312;12.372;2023-03-23T12:41:16;15.50;84.40
3418;DHT22;68007;51.312;12.372;2023-03-23T12:43:51;15.50;83.80
3418;DHT22;68007;51.312;12.372;2023-03-23T12:46:36;15.60;84.10
3418;DHT22;68007;51.312;12.372;2023-03-23T12:49:07;15.60;83.50
3418;DHT22;68007;51.312;12.372;2023-03-23T12:51:42;15.70;82.80
3418;DHT22;68007;51.312;12.372;2023-03-23T12:54:16;15.80;83.20
3418;DHT22;68007;51.312;12.372;2023-03-23T12:56:51;15.90;83.60
3418;DHT22;68007;51.312;12.372;2023-03-23T12:59:26;15.90;82.40
3418;DHT22;68007;51.312;12.372;2023-03-23T13:02:00;16.00;81.90
3418;DHT22;68007;51.312;12.372;2023-03-23T13:04:32;16.00;81.30
3418;DHT22;68007;51.312;12.372;2023-03-23T13:07:06;16.20;80.60
3418;DHT22;68007;51.312;12.372;2023-03-23T13:09:43;16.10;81.10
3418;DHT22;68007;51.312;12.372;2023-03-23T13:12:14;16.20;80.70
3418;DHT22;68007;51.312;12.372;2023-03-23T13:14:50;16.20;79.80
3418;DHT22;68007;51.312;12.372;2023-03-23T13:17:28;16.20;79.10
3418;DHT22;68007;51.312;12.372;2023-03-23T13:20:13;16.20;78.40
3418;DHT22;68007;51.312;12.372;2023-03-23T13:22:44;16.20;77.50
3418;DHT22;68007;51.312;12.372;2023-03-23T13:25:19;16.20;77.50
3418;DHT22;68007;51.312;12.372;2023-03-23T13:27:57;16.20;77.30
3418;DHT22;68007;51.312;12.372;2023-03-23T13:30:27;16.20;77.60
3418;DHT22;68007;51.312;12.372;2023-03-23T13:33:02;16.20;77.50
3418;DHT22;68007;51.312;12.372;2023-03-23T13:35:35;16.10;77.60
3418;DHT22;68007;51.312;12.372;2023-03-23T13:38:13;16.20;77.80
3418;DHT22;68007;51.312;12.372;2023-03-23T13:40:43;16.10;78.20
3418;DHT22;68007;51.312;12.372;2023-03-23T13:43:12;16.00;78.50
3418;DHT22;68007;51.312;12.372;2023-03-23T13:45:47;16.00;78.70
3418;DHT22;68007;51.312;12.372;2023-03-23T13:48:20;15.90;79.20
3418;DHT22;68007;51.312;12.372;2023-03-23T13:50:54;15.90;79.70
3418;DHT22;68007;51.312;12.372;2023-03-23T13:53:26;15.80;80.70
3418;DHT22;68007;51.312;12.372;2023-03-23T13:56:07;15.70;80.50
3418;DHT22;68007;51.312;12.372;2023-03-23T13:58:45;15.70;80.70
3418;DHT22;68007;51.312;12.372;2023-03-23T14:01:17;15.70;80.80
3418;DHT22;68007;51.312;12.372;2023-03-23T14:03:48;15.70;81.20
3418;DHT22;68007;51.312;12.372;2023-03-23T14:06:19;15.60;81.60
3418;DHT22;68007;51.312;12.372;2023-03-23T14:08:50;15.60;81.80
3418;DHT22;68007;51.312;12.372;2023-03-23T14:11:20;15.50;82.10
3418;DHT22;68007;51.312;12.372;2023-03-23T14:14:02;15.60;82.60
3418;DHT22;68007;51.312;12.372;2023-03-23T14:16:38;15.50;82.90
3418;DHT22;68007;51.312;12.372;2023-03-23T14:19:15;15.50;83.00
3418;DHT22;68007;51.312;12.372;2023-03-23T14:21:50;15.60;82.50
3418;DHT22;68007;51.312;12.372;2023-03-23T14:24:20;15.50;83.20
3418;DHT22;68007;51.312;12.372;2023-03-23T14:26:49;15.50;83.00
3418;DHT22;68007;51.312;12.372;2023-03-23T14:29:20;15.40;83.10
3418;DHT22;68007;51.312;12.372;2023-03-23T14:31:53;15.40;83.10
3418;DHT22;68007;51.312;12.372;2023-03-23T14:34:24;15.40;84.00
3418;DHT22;68007;51.312;12.372;2023-03-23T14:36:53;15.40;83.60
3418;DHT22;68007;51.312;12.372;2023-03-23T14:39:24;15.40;83.60
3418;DHT22;68007;51.312;12.372;2023-03-23T14:41:54;15.40;83.60
3418;DHT22;68007;51.312;12.372;2023-03-23T14:44:25;15.40;84.10
3418;DHT22;68007;51.312;12.372;2023-03-23T14:46:56;15.40;84.10
3418;DHT22;68007;51.312;12.372;2023-03-23T14:49:30;15.40;84.20
3418;DHT22;68007;51.312;12.372;2023-03-23T14:52:07;15.40;84.20
3418;DHT22;68007;51.312;12.372;2023-03-23T14:54:35;15.50;84.10
3418;DHT22;68007;51.312;12.372;2023-03-23T14:57:11;15.50;84.30
3418;DHT22;68007;51.312;12.372;2023-03-23T14:59:40;15.50;84.50
3418;DHT22;68007;51.312;12.372;2023-03-23T15:02:13;15.60;84.50
3418;DHT22;68007;51.312;12.372;2023-03-23T15:04:45;15.50;85.00
3418;DHT22;68007;51.312;12.372;2023-03-23T15:07:13;15.50;84.70
3418;DHT22;68007;51.312;12.372;2023-03-23T15:09:44;15.40;85.00
3418;DHT22;68007;51.312;12.372;2023-03-23T15:12:22;15.50;85.30
3418;DHT22;68007;51.312;12.372;2023-03-23T15:14:53;15.50;85.20
3418;DHT22;68007;51.312;12.372;2023-03-23T15:17:24;15.50;85.40
3418;DHT22;68007;51.312;12.372;2023-03-23T15:19:54;15.40;86.10
3418;DHT22;68007;51.312;12.372;2023-03-23T15:22:24;15.50;86.40
3418;DHT22;68007;51.312;12.372;2023-03-23T15:24:54;15.50;86.60
3418;DHT22;68007;51.312;12.372;2023-03-23T15:27:30;15.40;86.40
3418;DHT22;68007;51.312;12.372;2023-03-23T15:29:59;15.30;86.90
3418;DHT22;68007;51.312;12.372;2023-03-23T15:32:31;15.30;87.20
3418;DHT22;68007;51.312;12.372;2023-03-23T15:35:03;15.30;86.30
3418;DHT22;68007;51.312;12.372;2023-03-23T15:37:41;15.30;87.00
3418;DHT22;68007;51.312;12.372;2023-03-23T15:40:15;15.20;87.00
3418;DHT22;68007;51.312;12.372;2023-03-23T15:42:43;15.20;87.00
3418;DHT22;68007;51.312;12.372;2023-03-23T15:45:24;15.20;87.20
3418;DHT22;68007;51.312;12.372;2023-03-23T15:47:54;15.30;87.10
3418;DHT22;68007;51.312;12.372;2023-03-23T15:50:33;15.20;87.40
3418;DHT22;68007;51.312;12.372;2023-03-23T15:53:19;15.20;87.80
3418;DHT22;68007;51.312;12.372;2023-03-23T15:55:49;15.20;87.90
3418;DHT22;68007;51.312;12.372;2023-03-23T15:58:17;15.20;88.10
3418;DHT22;68007;51.312;12.372;2023-03-23T16:00:45;15.20;88.70